createdAt,value
2019-05-12T00:00:21.338Z,4.73
2019-05-12T00:02:50.002Z,4.40
2019-05-12T00:05:18.867Z,4.97
2019-05-12T00:07:48.783Z,5.20
2019-05-12T00:10:20.612Z,4.80
2019-05-12T00:12:49.201Z,5.37
2019-05-12T00:15:19.144Z,5.20
2019-05-12T00:17:48.764Z,5.43
2019-05-12T00:20:18.255Z,5.70
2019-05-12T00:22:49.172Z,5.00
2019-05-12T00:25:18.497Z,4.27
2019-05-12T00:27:48.515Z,5.20
2019-05-12T00:30:34.077Z,6.10
2019-05-12T00:33:08.943Z,6.00
2019-05-12T00:35:38.077Z,6.50
2019-05-12T00:38:09.115Z,6.17
2019-05-12T00:40:39.305Z,6.30
2019-05-12T00:43:08.692Z,6.70
2019-05-12T00:45:38.725Z,5.87
2019-05-12T00:48:09.150Z,5.43
2019-05-12T00:50:38.568Z,5.47
2019-05-12T00:53:08.966Z,4.83
2019-05-12T00:55:38.430Z,5.37
2019-05-12T00:58:08.202Z,5.40
2019-05-12T01:00:40.537Z,6.57
2019-05-12T01:03:08.640Z,7.00
2019-05-12T01:05:38.320Z,6.13
2019-05-12T01:08:09.050Z,6.63
2019-05-12T01:10:39.047Z,6.53
2019-05-12T01:13:08.689Z,5.83
2019-05-12T01:15:37.912Z,6.13
2019-05-12T01:18:09.427Z,7.07
2019-05-12T01:20:38.890Z,6.87
2019-05-12T01:23:08.780Z,5.00
2019-05-12T01:25:39.531Z,5.43
2019-05-12T01:28:08.425Z,6.13
2019-05-12T01:30:39.113Z,5.20
2019-05-12T01:33:08.560Z,6.23
2019-05-12T01:35:38.733Z,6.20
2019-05-12T01:38:08.297Z,6.30
2019-05-12T01:40:39.365Z,6.77
2019-05-12T01:43:08.812Z,6.63
2019-05-12T01:45:38.184Z,7.23
2019-05-12T01:48:08.824Z,6.33
2019-05-12T01:50:38.555Z,6.90
2019-05-12T01:53:08.407Z,6.57
2019-05-12T01:55:38.566Z,7.03
2019-05-12T01:58:08.451Z,6.90
2019-05-12T02:00:38.858Z,7.63
2019-05-12T02:03:09.006Z,7.03
2019-05-12T02:05:39.834Z,7.07
2019-05-12T02:08:10.172Z,7.27
2019-05-12T02:10:39.098Z,7.67
2019-05-12T02:13:08.216Z,8.20
2019-05-12T02:15:38.315Z,8.70
2019-05-12T02:18:09.119Z,8.33
2019-05-12T02:20:38.138Z,9.23
2019-05-12T02:23:09.019Z,10.53
2019-05-12T02:25:38.251Z,9.50
2019-05-12T02:28:09.172Z,10.00
2019-05-12T02:30:41.732Z,10.43
2019-05-12T02:33:07.836Z,11.23
2019-05-12T02:35:36.601Z,11.90
2019-05-12T02:38:05.595Z,9.87
2019-05-12T02:40:35.090Z,9.30
2019-05-12T02:43:05.324Z,9.80
2019-05-12T02:45:35.483Z,10.83
2019-05-12T02:48:05.585Z,11.03
2019-05-12T02:50:37.535Z,13.03
2019-05-12T02:53:07.249Z,13.40
2019-05-12T02:55:36.368Z,13.67
2019-05-12T02:58:05.892Z,16.30
2019-05-12T03:00:36.696Z,13.43
2019-05-12T03:03:14.404Z,10.43
2019-05-12T03:05:44.240Z,10.97
2019-05-12T03:08:15.334Z,10.90
2019-05-12T03:10:45.999Z,10.50
2019-05-12T03:13:15.071Z,9.27
2019-05-12T03:15:44.613Z,11.07
2019-05-12T03:18:14.600Z,9.83
2019-05-12T03:20:45.464Z,8.70
2019-05-12T03:23:15.510Z,9.70
2019-05-12T03:25:45.626Z,8.53
2019-05-12T03:28:16.011Z,8.00
2019-05-12T03:30:48.372Z,8.50
2019-05-12T03:33:19.729Z,8.60
2019-05-12T03:35:52.194Z,9.87
2019-05-12T03:38:15.901Z,9.33
2019-05-12T03:40:45.328Z,9.10
2019-05-12T03:43:14.769Z,8.00
2019-05-12T03:45:45.318Z,7.83
2019-05-12T03:48:15.051Z,7.80
2019-05-12T03:50:46.085Z,8.10
2019-05-12T03:53:15.611Z,8.00
2019-05-12T03:55:46.841Z,34.60
2019-05-12T03:58:15.482Z,81.07
2019-05-12T04:00:44.856Z,72.87
2019-05-12T04:03:15.323Z,56.47
2019-05-12T04:05:45.270Z,50.17
2019-05-12T04:08:15.710Z,84.37
2019-05-12T04:10:45.585Z,86.03
2019-05-12T04:13:15.196Z,83.03
2019-05-12T04:15:45.381Z,53.93
2019-05-12T04:18:15.798Z,41.60
2019-05-12T04:20:45.355Z,42.73
2019-05-12T04:23:15.462Z,43.90
2019-05-12T04:25:52.088Z,37.77
2019-05-12T04:28:15.176Z,21.60
2019-05-12T04:30:44.700Z,19.73
2019-05-12T04:33:15.443Z,18.30
2019-05-12T04:35:45.106Z,15.97
2019-05-12T04:38:15.005Z,13.07
2019-05-12T04:40:45.010Z,12.77
2019-05-12T04:43:14.731Z,12.70
2019-05-12T04:45:45.123Z,15.17
2019-05-12T04:48:15.577Z,15.20
2019-05-12T04:50:45.249Z,14.97
2019-05-12T04:53:14.604Z,16.20
2019-05-12T04:55:44.534Z,16.13
2019-05-12T04:58:15.650Z,15.47
2019-05-12T05:00:44.854Z,15.00
2019-05-12T05:03:14.307Z,12.27
2019-05-12T05:05:44.459Z,12.17
2019-05-12T05:08:15.531Z,11.47
2019-05-12T05:10:44.430Z,11.97
2019-05-12T05:13:14.917Z,12.60
2019-05-12T05:15:44.548Z,12.70
2019-05-12T05:18:13.575Z,8.77
2019-05-12T05:20:43.796Z,7.23
2019-05-12T05:23:14.231Z,9.77
2019-05-12T05:25:43.521Z,7.90
2019-05-12T05:28:14.344Z,7.00
2019-05-12T05:30:44.080Z,6.23
2019-05-12T05:33:14.463Z,5.70
2019-05-12T05:35:43.544Z,4.87
2019-05-12T05:38:18.618Z,5.10
2019-05-12T05:40:43.563Z,5.83
2019-05-12T05:43:17.479Z,5.73
2019-05-12T05:45:43.858Z,6.27
2019-05-12T05:48:13.597Z,5.97
2019-05-12T05:50:44.836Z,5.77
2019-05-12T05:53:19.643Z,5.60
2019-05-12T05:55:50.399Z,4.97
2019-05-12T05:58:16.723Z,4.60
2019-05-12T06:00:45.302Z,3.77
2019-05-12T06:03:22.575Z,3.70
2019-05-12T06:05:44.287Z,4.40
2019-05-12T06:08:18.603Z,5.17
2019-05-12T06:10:43.742Z,4.10
2019-05-12T06:13:14.368Z,3.37
2019-05-12T06:15:43.348Z,3.23
2019-05-12T06:18:13.582Z,2.83
2019-05-12T06:20:43.717Z,2.80
2019-05-12T06:23:15.525Z,3.30
2019-05-12T06:25:51.385Z,4.50
2019-05-12T06:28:17.330Z,2.93
2019-05-12T06:30:49.846Z,2.70
2019-05-12T06:33:16.271Z,3.20
2019-05-12T06:35:45.439Z,2.40
2019-05-12T06:38:14.324Z,3.60
2019-05-12T06:40:45.402Z,2.67
2019-05-12T06:43:14.185Z,3.13
2019-05-12T06:45:45.538Z,2.40
2019-05-12T06:48:14.025Z,3.10
2019-05-12T06:50:44.173Z,2.40
2019-05-12T06:53:13.916Z,2.20
2019-05-12T06:55:43.332Z,3.00
2019-05-12T06:58:14.017Z,2.93
2019-05-12T07:00:43.753Z,2.83
2019-05-12T07:03:14.334Z,2.70
2019-05-12T07:05:45.206Z,2.43
2019-05-12T07:08:20.009Z,2.50
2019-05-12T07:10:46.930Z,2.00
2019-05-12T07:13:22.494Z,2.33
2019-05-12T07:15:44.190Z,2.70
2019-05-12T07:18:17.250Z,2.53
2019-05-12T07:20:44.720Z,2.20
2019-05-12T07:23:14.300Z,3.00
2019-05-12T07:25:44.495Z,2.53
2019-05-12T07:28:14.445Z,2.10
2019-05-12T07:30:44.198Z,2.20
2019-05-12T07:33:14.644Z,2.33
2019-05-12T07:35:44.541Z,2.47
2019-05-12T07:38:20.957Z,2.93
2019-05-12T07:40:46.972Z,2.63
2019-05-12T07:43:20.490Z,2.20
2019-05-12T07:45:56.686Z,2.50
2019-05-12T07:48:19.917Z,2.45
2019-05-12T07:50:50.236Z,2.27
2019-05-12T07:53:18.762Z,2.35
2019-05-12T07:55:49.425Z,2.15
2019-05-12T07:58:19.300Z,2.15
2019-05-12T08:00:48.176Z,2.00
2019-05-12T08:03:21.221Z,1.85
2019-05-12T08:05:51.310Z,1.57
2019-05-12T08:08:17.331Z,1.60
2019-05-12T08:10:51.382Z,1.35
2019-05-12T08:13:19.060Z,1.80
2019-05-12T08:15:51.285Z,2.75
2019-05-12T08:18:18.037Z,2.58
2019-05-12T08:20:46.582Z,2.45
2019-05-12T08:23:15.230Z,2.77
2019-05-12T08:25:43.926Z,2.20
2019-05-12T08:28:18.790Z,1.40
2019-05-12T08:30:47.550Z,1.60
2019-05-12T08:33:14.679Z,2.30
2019-05-12T08:35:44.008Z,2.05
2019-05-12T08:38:14.455Z,2.40
2019-05-12T08:40:48.816Z,2.40
2019-05-12T08:43:14.868Z,2.58
2019-05-12T08:45:44.420Z,2.75
2019-05-12T08:48:21.535Z,3.10
2019-05-12T08:50:46.041Z,3.10
2019-05-12T08:53:20.322Z,4.35
2019-05-12T08:55:44.154Z,3.80
2019-05-12T08:58:29.737Z,3.62
2019-05-12T09:00:50.066Z,3.52
2019-05-12T09:03:14.143Z,3.50
2019-05-12T09:05:44.605Z,3.50
2019-05-12T09:08:16.592Z,3.42
2019-05-12T09:10:45.299Z,3.60
2019-05-12T09:13:14.498Z,2.95
2019-05-12T09:15:43.838Z,2.62
2019-05-12T09:18:14.434Z,2.42
2019-05-12T09:20:48.720Z,2.40
2019-05-12T09:23:13.729Z,2.15
2019-05-12T09:25:45.280Z,2.02
2019-05-12T09:28:13.769Z,2.90
2019-05-12T09:30:47.635Z,2.40
2019-05-12T09:33:14.058Z,2.60
2019-05-12T09:35:43.724Z,2.67
2019-05-12T09:38:21.200Z,1.85
2019-05-12T09:40:43.720Z,4.12
2019-05-12T09:43:13.775Z,2.42
2019-05-12T09:45:51.570Z,2.20
2019-05-12T09:48:15.841Z,2.00
2019-05-12T09:50:46.522Z,2.22
2019-05-12T09:53:14.809Z,2.42
2019-05-12T09:55:46.379Z,2.02
2019-05-12T09:58:23.078Z,2.25
2019-05-12T10:00:45.412Z,1.75
2019-05-12T10:03:14.110Z,2.40
2019-05-12T10:05:44.233Z,1.90
2019-05-12T10:08:13.882Z,1.55
2019-05-12T10:10:46.798Z,1.65
2019-05-12T10:13:14.789Z,1.95
2019-05-12T10:15:43.510Z,1.67
2019-05-12T10:18:14.388Z,1.70
2019-05-12T10:20:44.145Z,1.57
2019-05-12T10:23:16.547Z,1.67
2019-05-12T10:25:44.657Z,1.77
2019-05-12T10:28:16.095Z,1.72
2019-05-12T10:30:47.046Z,1.52
2019-05-12T10:33:14.101Z,2.22
2019-05-12T10:35:43.854Z,1.75
2019-05-12T10:38:13.768Z,1.80
2019-05-12T10:40:44.513Z,1.72
2019-05-12T10:43:12.968Z,1.77
2019-05-12T10:45:44.039Z,1.42
2019-05-12T10:48:13.946Z,1.35
2019-05-12T10:50:44.114Z,1.47
2019-05-12T10:53:15.560Z,1.50
2019-05-12T10:55:44.077Z,1.52
2019-05-12T10:58:14.521Z,1.40
2019-05-12T11:00:44.344Z,1.05
2019-05-12T11:03:15.454Z,1.10
2019-05-12T11:05:44.145Z,1.67
2019-05-12T11:08:14.298Z,1.32
2019-05-12T11:10:43.100Z,1.27
2019-05-12T11:13:14.018Z,1.17
2019-05-12T11:15:46.227Z,1.25
2019-05-12T11:18:13.616Z,1.17
2019-05-12T11:20:42.250Z,1.50
2019-05-12T11:23:10.934Z,1.30
2019-05-12T11:25:39.580Z,1.65
2019-05-12T11:28:08.322Z,1.45
2019-05-12T11:30:37.071Z,1.65
2019-05-12T11:33:05.719Z,1.72
2019-05-12T11:35:34.825Z,1.27
2019-05-12T11:38:04.466Z,1.32
2019-05-12T11:40:36.141Z,1.10
2019-05-12T11:43:06.301Z,1.55
2019-05-12T11:45:34.986Z,1.30
2019-05-12T11:48:09.911Z,1.45
2019-05-12T11:50:34.572Z,1.40
2019-05-12T11:53:04.214Z,1.37
2019-05-12T11:55:34.941Z,1.52
2019-05-12T11:58:06.836Z,1.67
2019-05-12T12:00:35.874Z,1.62
2019-05-12T12:03:12.722Z,1.67
2019-05-12T12:05:38.127Z,1.32
2019-05-12T12:08:05.570Z,1.50
2019-05-12T12:10:37.583Z,2.05
2019-05-12T12:13:04.504Z,1.47
2019-05-12T12:15:34.519Z,1.32
2019-05-12T12:18:12.727Z,1.70
2019-05-12T12:20:33.981Z,1.70
2019-05-12T12:23:06.560Z,1.25
2019-05-12T12:25:34.263Z,1.67
2019-05-12T12:28:04.381Z,1.60
2019-05-12T12:30:34.120Z,1.65
2019-05-12T12:33:04.127Z,1.67
2019-05-12T12:35:34.513Z,1.90
2019-05-12T12:38:06.193Z,1.32
2019-05-12T12:40:34.832Z,1.72
2019-05-12T12:43:03.976Z,0.95
2019-05-12T12:45:40.703Z,1.30
2019-05-12T12:48:09.394Z,1.20
2019-05-12T12:50:37.878Z,1.00
2019-05-12T12:53:06.530Z,1.15
2019-05-12T12:55:37.956Z,1.42
2019-05-12T12:58:05.641Z,1.57
2019-05-12T13:00:46.838Z,1.67
2019-05-12T13:03:04.664Z,1.40
2019-05-12T13:05:34.540Z,1.50
2019-05-12T13:08:04.288Z,1.40
2019-05-12T13:10:33.713Z,1.85
2019-05-12T13:13:04.136Z,1.75
2019-05-12T13:15:34.047Z,1.47
2019-05-12T13:18:02.866Z,1.42
2019-05-12T13:20:31.457Z,1.32
2019-05-12T13:22:59.930Z,1.22
2019-05-12T13:25:28.583Z,1.45
2019-05-12T13:28:01.457Z,1.32
2019-05-12T13:30:27.519Z,1.40
2019-05-12T13:32:56.112Z,1.20
2019-05-12T13:35:24.800Z,1.50
2019-05-12T13:37:58.435Z,2.25
2019-05-12T13:40:23.605Z,1.90
2019-05-12T13:42:54.312Z,2.37
2019-05-12T13:45:24.268Z,1.90
2019-05-12T13:47:53.528Z,1.98
2019-05-12T13:50:26.272Z,1.90
2019-05-12T13:52:54.208Z,1.25
2019-05-12T13:55:25.609Z,1.50
2019-05-12T13:57:57.781Z,1.32
2019-05-12T14:00:24.553Z,1.17
2019-05-12T14:02:57.162Z,1.32
2019-05-12T14:05:24.140Z,1.80
2019-05-12T14:07:55.432Z,0.93
2019-05-12T14:10:24.581Z,1.20
2019-05-12T14:12:54.350Z,1.22
2019-05-12T14:15:24.852Z,1.47
2019-05-12T14:17:54.267Z,1.30
2019-05-12T14:20:23.931Z,1.45
2019-05-12T14:22:53.773Z,1.55
2019-05-12T14:25:29.936Z,1.15
2019-05-12T14:27:53.708Z,1.80
2019-05-12T14:30:24.490Z,1.52
2019-05-12T14:32:55.053Z,1.37
2019-05-12T14:35:26.163Z,1.27
2019-05-12T14:37:54.649Z,2.00
2019-05-12T14:40:29.873Z,2.05
2019-05-12T14:42:54.410Z,1.92
2019-05-12T14:45:29.906Z,2.15
2019-05-12T14:47:59.912Z,2.00
2019-05-12T14:50:26.839Z,2.42
2019-05-12T14:52:59.845Z,2.10
2019-05-12T14:55:28.441Z,2.15
2019-05-12T14:57:56.954Z,1.80
2019-05-12T15:00:25.595Z,1.62
2019-05-12T15:02:54.163Z,2.12
2019-05-12T15:05:28.286Z,1.73
2019-05-12T15:08:00.203Z,2.30
2019-05-12T15:10:27.232Z,2.43
2019-05-12T15:12:56.013Z,2.50
2019-05-12T15:15:24.577Z,2.40
2019-05-12T15:17:56.770Z,2.10
2019-05-12T15:20:24.058Z,2.43
2019-05-12T15:22:54.966Z,3.50
2019-05-12T15:25:23.062Z,3.10
2019-05-12T15:27:51.634Z,2.50
2019-05-12T15:30:24.439Z,2.87
2019-05-12T15:32:50.583Z,2.53
2019-05-12T15:35:19.147Z,3.40
2019-05-12T15:37:47.763Z,3.00
2019-05-12T15:40:16.400Z,2.60
2019-05-12T15:42:46.138Z,2.47
2019-05-12T15:45:16.840Z,3.40
2019-05-12T15:47:45.164Z,3.33
2019-05-12T15:50:14.941Z,3.47
2019-05-12T15:52:45.640Z,3.03
2019-05-12T15:55:17.797Z,2.60
2019-05-12T15:57:44.875Z,3.00
2019-05-12T16:00:16.760Z,3.07
2019-05-12T16:02:44.489Z,3.10
2019-05-12T16:05:14.598Z,2.87
2019-05-12T16:07:47.724Z,2.60
2019-05-12T16:10:16.612Z,2.87
2019-05-12T16:12:45.252Z,2.20
2019-05-12T16:15:19.230Z,3.00
2019-05-12T16:17:44.515Z,2.97
2019-05-12T16:20:14.408Z,2.50
2019-05-12T16:22:45.244Z,3.00
2019-05-12T16:25:15.187Z,2.70
2019-05-12T16:27:44.803Z,3.00
2019-05-12T16:30:14.063Z,2.77
2019-05-12T16:32:47.646Z,2.50
2019-05-12T16:35:14.534Z,2.20
2019-05-12T16:37:44.217Z,2.47
2019-05-12T16:40:14.087Z,2.20
2019-05-12T16:42:48.101Z,2.97
2019-05-12T16:45:19.849Z,3.13
2019-05-12T16:47:46.994Z,3.10
2019-05-12T16:50:24.040Z,3.00
2019-05-12T16:52:46.155Z,2.67
2019-05-12T16:55:14.802Z,2.90
2019-05-12T16:57:51.271Z,2.90
2019-05-12T17:00:14.845Z,3.10
2019-05-12T17:02:52.151Z,2.20
2019-05-12T17:05:19.776Z,2.73
2019-05-12T17:07:44.926Z,2.80
2019-05-12T17:10:16.548Z,2.90
2019-05-12T17:12:44.073Z,2.67
2019-05-12T17:15:14.945Z,3.53
2019-05-12T17:17:44.753Z,3.63
2019-05-12T17:20:13.979Z,3.20
2019-05-12T17:22:45.694Z,3.07
2019-05-12T17:25:15.188Z,3.40
2019-05-12T17:27:44.869Z,3.20
2019-05-12T17:30:16.824Z,3.27
2019-05-12T17:32:58.170Z,3.43
2019-05-12T17:35:20.346Z,3.40
2019-05-12T17:37:46.374Z,3.10
2019-05-12T17:40:19.886Z,3.30
2019-05-12T17:42:45.796Z,4.53
2019-05-12T17:45:20.128Z,6.23
2019-05-12T17:47:45.088Z,8.23
2019-05-12T17:50:14.080Z,5.73
2019-05-12T17:52:45.030Z,5.23
2019-05-12T17:55:15.898Z,3.37
2019-05-12T17:57:44.563Z,3.60
2019-05-12T18:00:15.108Z,3.47
2019-05-12T18:02:44.237Z,3.47
2019-05-12T18:05:15.557Z,3.17
2019-05-12T18:07:50.841Z,3.23
2019-05-12T18:10:17.883Z,3.13
2019-05-12T18:12:46.521Z,3.13
2019-05-12T18:15:16.485Z,2.77
2019-05-12T18:17:49.786Z,3.10
2019-05-12T18:20:16.301Z,3.63
2019-05-12T18:22:46.965Z,2.93
2019-05-12T18:25:21.962Z,3.77
2019-05-12T18:27:50.803Z,3.43
2019-05-12T18:30:19.360Z,3.60
2019-05-12T18:32:48.124Z,3.23
2019-05-12T18:35:16.776Z,3.37
2019-05-12T18:37:45.277Z,3.97
2019-05-12T18:40:14.983Z,4.67
2019-05-12T18:42:43.510Z,5.77
2019-05-12T18:45:17.993Z,5.57
2019-05-12T18:47:44.659Z,4.27
2019-05-12T18:50:14.091Z,4.30
2019-05-12T18:52:46.195Z,4.03
2019-05-12T18:55:13.459Z,4.23
2019-05-12T18:57:47.973Z,3.93
2019-05-12T19:00:18.712Z,3.63
2019-05-12T19:02:50.807Z,3.97
2019-05-12T19:05:21.902Z,3.33
2019-05-12T19:07:48.434Z,2.90
2019-05-12T19:10:17.092Z,2.83
2019-05-12T19:12:45.789Z,2.20
2019-05-12T19:15:19.523Z,2.40
2019-05-12T19:17:45.971Z,2.43
2019-05-12T19:20:15.120Z,2.50
2019-05-12T19:22:56.082Z,2.17
2019-05-12T19:25:19.598Z,2.27
2019-05-12T19:27:55.167Z,1.80
2019-05-12T19:30:25.306Z,1.87
2019-05-12T19:32:54.572Z,1.57
2019-05-12T19:35:23.488Z,1.37
2019-05-12T19:37:53.819Z,1.70
2019-05-12T19:40:22.745Z,1.17
2019-05-12T19:42:53.688Z,1.37
2019-05-12T19:45:22.538Z,2.00
2019-05-12T19:47:53.581Z,1.63
2019-05-12T19:50:22.414Z,1.67
2019-05-12T19:52:50.959Z,1.60
2019-05-12T19:55:20.288Z,2.03
2019-05-12T19:57:50.180Z,1.90
2019-05-12T20:00:19.078Z,2.57
2019-05-12T20:02:47.722Z,1.70
2019-05-12T20:05:17.638Z,2.57
2019-05-12T20:07:46.512Z,2.17
2019-05-12T20:10:16.548Z,1.90
2019-05-12T20:12:48.736Z,1.93
2019-05-12T20:15:15.678Z,1.80
2019-05-12T20:17:45.131Z,1.80
2019-05-12T20:20:17.714Z,1.90
2019-05-12T20:22:45.305Z,1.90
2019-05-12T20:25:14.725Z,1.63
2019-05-12T20:27:44.674Z,1.80
2019-05-12T20:30:18.896Z,2.00
2019-05-12T20:32:44.097Z,2.23
2019-05-12T20:35:14.594Z,2.10
2019-05-12T20:37:52.417Z,2.90
2019-05-12T20:40:14.197Z,2.70
2019-05-12T20:43:05.333Z,2.83
2019-05-12T20:45:13.924Z,2.97
2019-05-12T20:47:45.202Z,2.80
2019-05-12T20:50:14.671Z,3.00
2019-05-12T20:52:52.261Z,3.10
2019-05-12T20:55:16.987Z,3.77
2019-05-12T20:57:56.621Z,3.47
2019-05-12T21:00:15.957Z,3.43
2019-05-12T21:02:44.646Z,3.83
2019-05-12T21:05:17.585Z,4.23
2019-05-12T21:07:44.065Z,4.43
2019-05-12T21:10:14.890Z,5.10
2019-05-12T21:12:46.248Z,6.00
2019-05-12T21:15:20.365Z,6.03
2019-05-12T21:17:52.109Z,6.37
2019-05-12T21:20:16.778Z,6.40
2019-05-12T21:22:45.653Z,6.23
2019-05-12T21:25:14.297Z,6.67
2019-05-12T21:27:47.303Z,7.90
2019-05-12T21:30:15.183Z,8.07
2019-05-12T21:32:47.081Z,7.63
2019-05-12T21:35:21.892Z,7.63
2019-05-12T21:37:46.313Z,7.40
2019-05-12T21:40:15.253Z,8.40
2019-05-12T21:42:44.617Z,7.60
2019-05-12T21:45:14.565Z,8.40
2019-05-12T21:47:44.527Z,9.40
2019-05-12T21:50:14.103Z,8.10
2019-05-12T21:52:44.524Z,8.60
2019-05-12T21:55:21.320Z,9.30
2019-05-12T21:57:44.013Z,10.07
2019-05-12T22:00:34.717Z,10.53
2019-05-12T22:03:08.149Z,9.77
2019-05-12T22:05:47.989Z,9.30
2019-05-12T22:08:06.399Z,9.83
2019-05-12T22:10:35.571Z,9.97
2019-05-12T22:13:07.358Z,9.83
2019-05-12T22:15:36.093Z,9.30
2019-05-12T22:18:05.236Z,10.30
2019-05-12T22:20:35.788Z,10.33
2019-05-12T22:23:10.126Z,9.83
2019-05-12T22:25:35.396Z,11.40
2019-05-12T22:28:09.734Z,11.80
2019-05-12T22:30:35.145Z,11.60
2019-05-12T22:33:09.197Z,13.00
2019-05-12T22:35:34.425Z,11.93
2019-05-12T22:38:09.405Z,13.00
2019-05-12T22:40:33.357Z,13.00
2019-05-12T22:43:04.494Z,14.97
2019-05-12T22:45:37.797Z,14.87
2019-05-12T22:48:04.114Z,14.10
2019-05-12T22:50:35.183Z,14.93
2019-05-12T22:53:04.418Z,15.93
2019-05-12T22:55:35.961Z,16.07
2019-05-12T22:58:04.469Z,17.73
2019-05-12T23:00:34.332Z,17.87
2019-05-12T23:03:07.145Z,18.20
2019-05-12T23:05:33.525Z,18.87
2019-05-12T23:08:06.294Z,18.53
2019-05-12T23:10:32.644Z,20.47
2019-05-12T23:13:02.293Z,19.70
2019-05-12T23:15:33.541Z,20.67
2019-05-12T23:18:04.008Z,21.00
2019-05-12T23:20:33.354Z,22.83
2019-05-12T23:23:03.914Z,22.90
2019-05-12T23:25:33.642Z,22.80
2019-05-12T23:28:06.750Z,24.23
2019-05-12T23:30:32.936Z,24.00
2019-05-12T23:33:03.789Z,24.97
2019-05-12T23:35:34.838Z,24.50
2019-05-12T23:38:04.483Z,24.93
2019-05-12T23:40:34.538Z,25.67
2019-05-12T23:43:04.101Z,26.57
2019-05-12T23:45:33.899Z,28.27
2019-05-12T23:48:03.741Z,27.87
2019-05-12T23:50:32.899Z,27.30
2019-05-12T23:53:03.683Z,29.00
2019-05-12T23:55:35.013Z,28.93
2019-05-12T23:58:04.289Z,31.20
